createdAt,value
2018-09-25T00:47:25.829Z,1.37
2018-09-25T00:52:34.678Z,1.40
2018-09-25T00:57:56.226Z,2.77
2018-09-25T02:35:05.608Z,1.33
2018-09-25T02:40:14.511Z,1.30
2018-09-25T03:48:39.795Z,1.47
2018-09-25T03:53:49.261Z,1.50
2018-09-25T03:58:58.145Z,1.60
2018-09-25T04:32:52.080Z,1.70
2018-09-25T04:38:00.900Z,1.50
2018-09-25T04:43:09.630Z,1.83
2018-09-25T04:53:55.171Z,1.73
2018-09-25T04:59:04.015Z,1.80
2018-09-25T05:04:12.785Z,2.17
2018-09-25T05:09:21.512Z,1.93
2018-09-25T05:14:30.605Z,1.80
2018-09-25T05:19:39.491Z,2.07
2018-09-25T05:24:48.227Z,1.93
2018-09-25T05:29:57.041Z,1.87
2018-09-25T05:35:05.767Z,2.63
2018-09-25T05:40:14.914Z,2.30
2018-09-25T05:45:23.647Z,2.30
2018-09-25T05:50:33.435Z,2.30
2018-09-25T05:55:42.376Z,2.73
2018-09-25T06:00:51.096Z,2.17
2018-09-25T06:05:59.914Z,2.60
2018-09-25T06:11:08.657Z,3.50
2018-09-25T06:16:17.505Z,2.83
2018-09-25T06:21:26.274Z,3.17
2018-09-25T06:26:35.126Z,2.83
2018-09-25T07:00:54.054Z,2.10
2018-09-25T07:06:02.775Z,1.83
2018-09-25T07:11:11.482Z,2.10
2018-09-25T08:02:22.138Z,1.30
2018-09-25T08:07:30.991Z,0.90
2018-09-25T08:12:39.707Z,1.20
2018-09-25T09:03:49.949Z,1.13
2018-09-25T09:08:58.795Z,1.07
2018-09-25T09:14:07.666Z,0.70
2018-09-25T10:05:16.241Z,1.40
2018-09-25T10:10:25.719Z,1.10
2018-09-25T11:01:37.622Z,0.70
2018-09-25T11:06:46.466Z,0.80
2018-09-25T11:11:55.343Z,0.90
2018-09-25T12:03:05.771Z,1.00
2018-09-25T12:08:14.617Z,1.10
2018-09-25T12:13:23.336Z,0.60
2018-09-25T13:04:33.298Z,0.70
2018-09-25T13:09:42.065Z,0.73
2018-09-25T13:14:50.937Z,0.43
2018-09-25T14:05:59.427Z,1.00
2018-09-25T14:11:08.147Z,1.00
2018-09-25T14:50:47.271Z,0.67
2018-09-25T14:55:55.993Z,1.00
2018-09-25T15:35:36.661Z,1.00
2018-09-25T15:40:45.362Z,1.13
2018-09-25T15:45:54.023Z,0.73
2018-09-25T15:51:02.912Z,1.30
2018-09-25T15:56:11.623Z,1.00
2018-09-25T16:01:20.340Z,1.10
2018-09-25T16:06:29.779Z,1.00
2018-09-25T16:11:38.487Z,0.80
2018-09-25T16:16:47.354Z,0.83
2018-09-25T16:21:56.152Z,1.10
2018-09-25T16:27:04.949Z,0.80
2018-09-25T16:32:13.795Z,0.97
2018-09-25T16:37:30.977Z,1.90
2018-09-25T16:47:55.478Z,1.70
2018-09-25T16:53:04.215Z,1.20
2018-09-25T16:58:14.861Z,1.20
2018-09-25T17:03:23.579Z,1.00
2018-09-25T17:08:32.432Z,0.80
2018-09-25T17:13:41.148Z,0.80
2018-09-25T17:18:49.868Z,1.07
2018-09-25T17:23:58.587Z,0.93
2018-09-25T17:29:07.374Z,1.40
2018-09-25T17:34:16.210Z,0.80
2018-09-25T17:39:25.055Z,0.70
2018-09-25T17:44:33.770Z,0.80
2018-09-25T17:49:42.523Z,0.90
2018-09-25T17:54:51.238Z,0.77
2018-09-25T17:59:59.979Z,1.10
2018-09-25T18:05:08.683Z,1.20
2018-09-25T18:10:17.413Z,1.10
2018-09-25T18:15:26.130Z,1.40
2018-09-25T18:20:34.863Z,1.13
2018-09-25T18:25:43.706Z,1.23
2018-09-25T18:30:52.542Z,1.80
2018-09-25T18:36:17.658Z,1.40
2018-09-25T18:41:26.295Z,1.30
2018-09-25T18:46:35.143Z,1.80
2018-09-25T18:51:43.986Z,1.50
2018-09-25T18:56:52.830Z,1.50
2018-09-25T19:02:01.603Z,2.40
2018-09-25T19:07:10.361Z,1.60
2018-09-25T19:12:19.078Z,1.43
2018-09-25T19:17:31.247Z,1.17
2018-09-25T19:22:40.312Z,1.30
2018-09-25T19:27:49.278Z,1.47
2018-09-25T19:32:58.030Z,1.67
2018-09-25T19:38:10.427Z,1.50
2018-09-25T19:43:19.266Z,1.97
2018-09-25T19:48:49.062Z,1.47
2018-09-25T19:53:57.916Z,0.90
2018-09-25T19:59:06.755Z,1.43
2018-09-25T20:04:15.427Z,1.07
2018-09-25T20:09:24.051Z,0.97
2018-09-25T20:14:32.796Z,1.10
2018-09-25T20:19:41.531Z,1.07
2018-09-25T20:24:50.244Z,1.00
2018-09-25T20:29:58.959Z,1.03
2018-09-25T20:35:07.814Z,1.27
2018-09-25T20:40:16.532Z,1.30
2018-09-25T20:45:25.258Z,1.60
2018-09-25T20:50:36.935Z,1.30
2018-09-25T21:01:27.752Z,1.60
2018-09-25T21:06:36.347Z,1.50
2018-09-25T21:11:45.055Z,1.47
2018-09-25T21:16:53.962Z,1.30
2018-09-25T21:22:02.690Z,1.37
2018-09-25T21:33:03.439Z,1.67
2018-09-25T21:38:26.286Z,1.33
2018-09-25T21:43:35.134Z,1.43
2018-09-25T21:48:43.893Z,1.30
2018-09-25T21:53:52.703Z,1.10
2018-09-25T21:59:01.430Z,1.40
2018-09-25T22:04:10.153Z,1.40
2018-09-25T22:09:18.867Z,1.37
2018-09-25T22:14:27.715Z,1.40
2018-09-25T22:19:36.554Z,0.97
2018-09-25T22:24:45.307Z,1.17
2018-09-25T22:29:54.778Z,1.13
2018-09-25T22:35:03.528Z,1.17
2018-09-25T22:40:12.367Z,1.10
2018-09-25T22:45:21.040Z,1.10
2018-09-25T22:50:29.642Z,1.00
2018-09-25T22:55:38.359Z,1.03
2018-09-25T23:00:47.070Z,0.97
2018-09-25T23:05:55.778Z,1.30
2018-09-25T23:11:04.505Z,1.43
